Time;durP1;ratioP1;P1;durP2;ratioP2;P2;SDS_P1;SDS_P2;PMS_P1;PMS_P2;Temp;Humidity;BMP_temperature;BMP_pressure;BME280_temperature;BME280_humidity;BME280_pressure;Samples;Min_cycle;Max_cycle;Signal;HPM_P1;HPM_P2
2022/08/15 00:00:50;;;;;;;6.00;5.50;;;23.10;99.90;;;;;;5033680;28;20203;-65
2022/08/15 00:03:27;;;;;;;5.55;5.10;;;23.20;99.90;;;;;;5034041;28;20175;-66
2022/08/15 00:05:58;;;;;;;6.32;5.53;;;23.30;99.90;;;;;;5033817;28;20175;-66
2022/08/15 00:08:25;;;;;;;5.90;5.30;;;23.20;99.90;;;;;;5034068;28;20168;-65
2022/08/15 00:10:52;;;;;;;5.47;5.07;;;23.20;99.90;;;;;;5033489;28;20211;-65
2022/08/15 00:13:25;;;;;;;5.90;5.20;;;23.10;99.90;;;;;;5033420;28;20221;-65
2022/08/15 00:15:54;;;;;;;5.53;5.10;;;23.10;99.90;;;;;;5033743;28;20591;-65
2022/08/15 00:18:22;;;;;;;5.88;5.32;;;23.00;99.90;;;;;;5033961;28;20182;-65
2022/08/15 00:20:48;;;;;;;6.63;4.88;;;23.00;99.90;;;;;;5033317;28;20256;-65
2022/08/15 00:23:19;;;;;;;5.15;4.75;;;23.00;99.90;;;;;;5034108;28;20603;-65
2022/08/15 00:25:46;;;;;;;5.10;4.80;;;22.90;99.90;;;;;;5033731;28;20176;-65
2022/08/15 00:28:13;;;;;;;4.53;4.13;;;22.90;99.90;;;;;;5033667;28;20182;-66
2022/08/15 00:30:39;;;;;;;5.40;4.90;;;23.00;99.90;;;;;;5033241;28;20199;-66
2022/08/15 00:33:06;;;;;;;4.88;4.53;;;23.00;99.90;;;;;;5033440;28;20533;-66
2022/08/15 00:35:36;;;;;;;6.05;5.63;;;23.10;99.90;;;;;;5033028;28;20178;-66
2022/08/15 00:38:07;;;;;;;4.53;4.10;;;23.20;99.90;;;;;;5033436;28;20190;-66
2022/08/15 00:41:39;;;;;;;5.13;4.53;;;23.30;99.90;;;;;;5032978;28;20322;-65
2022/08/15 00:43:23;;;;;;;5.53;4.45;;;23.50;99.90;;;;;;5033121;28;20172;-65
2022/08/15 00:45:49;;;;;;;4.28;4.00;;;23.60;99.90;;;;;;5033067;28;20262;-66
2022/08/15 00:51:02;;;;;;;4.00;3.70;;;23.80;99.90;;;;;;5032738;28;20226;-65
2022/08/15 00:53:28;;;;;;;4.47;3.70;;;23.90;99.90;;;;;;5033260;28;20164;-66
2022/08/15 00:55:56;;;;;;;7.72;3.47;;;23.90;99.90;;;;;;5032877;28;20171;-66
2022/08/15 00:58:22;;;;;;;3.88;3.58;;;24.00;99.90;;;;;;5033223;28;20193;-65
2022/08/15 01:00:48;;;;;;;3.60;3.30;;;24.00;99.90;;;;;;5032639;28;20676;-65
2022/08/15 01:03:20;;;;;;;4.72;4.32;;;24.00;99.90;;;;;;5033024;28;20176;-64
2022/08/15 01:05:49;;;;;;;4.25;3.85;;;24.00;99.90;;;;;;5032712;28;20695;-64
2022/08/15 01:08:16;;;;;;;5.22;4.13;;;24.00;99.90;;;;;;5032949;28;20176;-63
2022/08/15 01:10:43;;;;;;;4.20;3.90;;;24.00;99.90;;;;;;5032468;28;20197;-64
2022/08/15 01:13:10;;;;;;;4.13;3.83;;;24.10;99.90;;;;;;5032745;28;20686;-64
2022/08/15 01:15:36;;;;;;;4.00;3.60;;;24.10;99.90;;;;;;5032281;28;20184;-65
2022/08/15 01:18:03;;;;;;;5.20;3.70;;;24.10;99.90;;;;;;5032655;28;20175;-64
2022/08/15 01:20:32;;;;;;;5.57;3.70;;;24.10;99.90;;;;;;5032310;28;20587;-64
2022/08/15 01:23:42;;;;;;;3.72;3.40;;;24.10;99.90;;;;;;5032160;28;20175;-64
2022/08/15 01:26:08;;;;;;;4.53;3.50;;;24.00;99.90;;;;;;4979201;28;20211;-65
2022/08/15 01:28:38;;;;;;;11.13;4.20;;;24.00;99.90;;;;;;5022055;28;20175;-64
2022/08/15 01:31:13;;;;;;;4.30;3.90;;;24.00;99.90;;;;;;5032222;28;20731;-64
2022/08/15 01:33:46;;;;;;;4.20;3.90;;;24.00;99.90;;;;;;5030599;28;20210;-64
2022/08/15 01:36:12;;;;;;;4.78;4.38;;;24.00;99.90;;;;;;5032358;28;20668;-64
2022/08/15 01:38:41;;;;;;;4.63;4.18;;;24.00;99.90;;;;;;5031915;28;20176;-64
2022/08/15 01:41:35;;;;;;;4.90;4.50;;;23.90;99.90;;;;;;5031974;28;20211;-64
2022/08/15 01:44:08;;;;;;;4.63;4.18;;;23.90;99.90;;;;;;5031710;28;20214;-65
2022/08/15 01:46:47;;;;;;;4.78;4.38;;;23.80;99.90;;;;;;5032213;28;20178;-64
2022/08/15 01:49:17;;;;;;;6.25;4.35;;;23.70;99.90;;;;;;5031736;28;20237;-64
2022/08/15 01:51:44;;;;;;;4.70;4.38;;;23.70;99.90;;;;;;5032101;28;20207;-65
2022/08/15 01:54:13;;;;;;;5.43;4.22;;;23.70;99.90;;;;;;5031582;28;20183;-65
2022/08/15 01:56:42;;;;;;;4.45;4.00;;;23.80;99.90;;;;;;5032244;28;20199;-65
2022/08/15 01:59:14;;;;;;;4.93;4.07;;;23.70;99.90;;;;;;5031672;28;20201;-64
2022/08/15 02:01:54;;;;;;;3.90;3.60;;;23.70;99.90;;;;;;5031545;28;20206;-64
2022/08/15 02:04:25;;;;;;;5.57;3.85;;;23.80;99.90;;;;;;5031718;28;20183;-63
2022/08/15 02:06:52;;;;;;;4.35;3.67;;;23.70;99.90;;;;;;5032128;28;20190;-65
2022/08/15 02:09:20;;;;;;;4.95;3.83;;;23.70;99.90;;;;;;5031961;28;20263;-64
2022/08/15 02:11:50;;;;;;;4.05;3.67;;;23.60;99.90;;;;;;5031807;28;20680;-65
2022/08/15 02:14:17;;;;;;;4.38;4.07;;;23.60;99.90;;;;;;5031236;28;20267;-64
2022/08/15 02:16:43;;;;;;;4.45;3.90;;;23.60;99.90;;;;;;5045416;28;20182;-64
2022/08/15 02:19:12;;;;;;;4.18;3.88;;;23.50;99.90;;;;;;5051515;28;20182;-66
2022/08/15 02:21:41;;;;;;;4.45;4.15;;;23.50;99.90;;;;;;5051737;28;20222;-66
2022/08/15 02:24:20;;;;;;;4.70;4.30;;;23.40;99.90;;;;;;5043846;28;20202;-64
2022/08/15 02:26:46;;;;;;;4.60;4.20;;;23.40;99.90;;;;;;5031512;28;20187;-66
2022/08/15 02:29:13;;;;;;;4.75;4.35;;;23.30;99.90;;;;;;5031337;28;20203;-65
2022/08/15 02:31:40;;;;;;;5.20;4.35;;;23.30;99.90;;;;;;5031657;28;20618;-63
2022/08/15 02:34:06;;;;;;;3.97;3.70;;;23.30;99.90;;;;;;5031018;28;20265;-64
2022/08/15 02:36:35;;;;;;;4.47;4.18;;;23.20;99.90;;;;;;5037513;28;20175;-65
2022/08/15 02:39:05;;;;;;;4.55;4.07;;;23.10;99.90;;;;;;5037670;28;20179;-64
2022/08/15 02:41:38;;;;;;;4.55;4.15;;;22.90;99.90;;;;;;5038043;28;20203;-64
2022/08/15 02:44:05;;;;;;;4.80;4.20;;;22.90;99.90;;;;;;5037493;28;20252;-66
2022/08/15 02:46:31;;;;;;;5.55;3.97;;;22.90;99.90;;;;;;5038064;28;20174;-64
2022/08/15 02:49:01;;;;;;;4.65;4.05;;;22.80;99.90;;;;;;5037555;28;20190;-63
2022/08/15 02:51:28;;;;;;;6.03;4.22;;;22.80;99.90;;;;;;5037941;28;20759;-64
2022/08/15 02:53:55;;;;;;;5.30;4.93;;;22.80;99.90;;;;;;5037313;28;20175;-65
2022/08/15 02:56:25;;;;;;;5.15;4.85;;;22.80;99.90;;;;;;5038029;28;20176;-64
2022/08/15 02:58:51;;;;;;;4.38;4.05;;;22.70;99.90;;;;;;5037694;28;20167;-63
2022/08/15 03:01:19;;;;;;;4.60;4.20;;;22.70;99.90;;;;;;5038028;28;20611;-64
2022/08/15 03:03:47;;;;;;;4.47;3.95;;;22.80;99.90;;;;;;5037383;28;20258;-65
2022/08/15 03:06:16;;;;;;;4.38;4.07;;;22.80;99.90;;;;;;5037841;28;20176;-65
2022/08/15 03:08:41;;;;;;;4.20;3.90;;;22.80;99.90;;;;;;5037853;28;20262;-66
2022/08/15 03:11:08;;;;;;;8.15;4.43;;;22.80;99.90;;;;;;5037642;28;20295;-66
2022/08/15 03:13:35;;;;;;;4.43;4.03;;;22.90;99.90;;;;;;5037471;28;20660;-66
2022/08/15 03:16:01;;;;;;;5.82;4.47;;;22.90;99.90;;;;;;5037819;28;20228;-66
2022/08/15 03:18:31;;;;;;;4.80;4.47;;;23.00;99.90;;;;;;5037759;28;20163;-64
2022/08/15 03:20:57;;;;;;;4.57;4.05;;;23.10;99.90;;;;;;5017746;28;20204;-65
2022/08/15 03:23:27;;;;;;;5.25;4.38;;;23.20;99.90;;;;;;5026226;28;20507;-64
2022/08/15 03:25:56;;;;;;;5.03;4.63;;;23.20;99.90;;;;;;5037717;28;20174;-64
2022/08/15 03:28:24;;;;;;;4.10;3.70;;;23.30;99.90;;;;;;5037602;28;20274;-63
2022/08/15 03:30:50;;;;;;;4.85;4.35;;;23.20;99.90;;;;;;5037458;28;20596;-65
2022/08/15 03:33:17;;;;;;;4.15;3.85;;;23.30;99.90;;;;;;5037255;28;20257;-64
2022/08/15 03:35:47;;;;;;;3.95;3.72;;;23.30;99.90;;;;;;5037387;28;20186;-63
2022/08/15 03:38:13;;;;;;;3.80;3.58;;;23.40;99.90;;;;;;5017848;28;20642;-65
2022/08/15 03:40:41;;;;;;;4.47;4.13;;;23.40;99.90;;;;;;5017597;28;20220;-65
2022/08/15 03:43:13;;;;;;;6.00;4.15;;;23.40;99.90;;;;;;5036572;28;20558;-64
2022/08/15 03:45:42;;;;;;;4.50;4.10;;;23.40;99.90;;;;;;5037537;28;20163;-64
2022/08/15 03:48:09;;;;;;;4.38;4.00;;;23.40;99.90;;;;;;5033374;28;20211;-64
2022/08/15 03:50:34;;;;;;;4.88;4.47;;;23.40;99.90;;;;;;5034388;28;20522;-63
2022/08/15 03:53:03;;;;;;;5.30;4.22;;;23.40;99.90;;;;;;5033908;28;20178;-63
2022/08/15 03:55:31;;;;;;;5.03;3.90;;;23.40;99.90;;;;;;5034232;28;20206;-64
2022/08/15 03:57:57;;;;;;;4.00;3.60;;;23.40;99.90;;;;;;5034022;28;20179;-63
2022/08/15 04:00:28;;;;;;;4.30;3.90;;;23.40;99.90;;;;;;5034235;28;20711;-64
2022/08/15 04:03:04;;;;;;;4.68;4.28;;;23.40;99.90;;;;;;5033785;28;20613;-62
2022/08/15 04:05:30;;;;;;;4.57;4.10;;;23.40;99.90;;;;;;5033957;28;20622;-65
2022/08/15 04:07:56;;;;;;;5.63;3.92;;;23.50;99.90;;;;;;5033840;28;20183;-63
2022/08/15 04:10:22;;;;;;;5.28;4.28;;;23.50;99.90;;;;;;5034144;28;20262;-64
2022/08/15 04:12:47;;;;;;;4.40;4.00;;;23.50;99.90;;;;;;5033631;28;20732;-64
2022/08/15 04:15:15;;;;;;;4.20;4.00;;;23.40;99.90;;;;;;5033782;28;20249;-64
2022/08/15 04:17:42;;;;;;;7.10;4.18;;;23.40;99.90;;;;;;5033773;28;20179;-64
2022/08/15 04:20:10;;;;;;;6.57;4.25;;;23.40;99.90;;;;;;5033763;28;20615;-65
2022/08/15 04:22:42;;;;;;;4.50;4.10;;;23.40;99.90;;;;;;5033540;28;20206;-64
2022/08/15 04:25:11;;;;;;;6.68;3.55;;;23.30;99.90;;;;;;5033441;28;20176;-65
2022/08/15 04:27:37;;;;;;;3.90;3.60;;;23.30;99.90;;;;;;5033848;28;20613;-64
2022/08/15 04:30:04;;;;;;;3.85;3.55;;;23.40;99.90;;;;;;5032564;28;20267;-65
2022/08/15 04:32:30;;;;;;;5.13;3.67;;;23.30;99.90;;;;;;5033376;28;20312;-64
2022/08/15 04:34:58;;;;;;;4.07;3.75;;;23.30;99.90;;;;;;5033154;28;20692;-65
2022/08/15 04:37:25;;;;;;;5.05;4.15;;;23.30;99.90;;;;;;5033510;28;20168;-66
2022/08/15 04:39:51;;;;;;;4.03;3.72;;;23.20;99.90;;;;;;5033426;28;20179;-64
2022/08/15 04:42:19;;;;;;;6.47;3.72;;;23.20;99.90;;;;;;5032215;28;20629;-65
2022/08/15 04:44:48;;;;;;;4.85;4.55;;;23.30;99.90;;;;;;5033251;28;20633;-64
2022/08/15 04:47:14;;;;;;;5.03;3.78;;;23.20;99.90;;;;;;5033091;28;20191;-64
2022/08/15 04:49:41;;;;;;;4.38;3.78;;;23.20;99.90;;;;;;5034076;28;20172;-64
2022/08/15 04:52:13;;;;;;;4.22;3.90;;;23.20;99.90;;;;;;5032848;28;20207;-65
2022/08/15 04:54:40;;;;;;;4.68;3.75;;;23.20;99.90;;;;;;5032963;28;20182;-65
2022/08/15 04:57:08;;;;;;;4.25;3.85;;;23.30;99.90;;;;;;5031854;28;20190;-65
2022/08/15 04:59:36;;;;;;;8.65;4.00;;;23.30;99.90;;;;;;5033111;28;20233;-66
2022/08/15 05:02:03;;;;;;;4.93;4.45;;;23.40;99.90;;;;;;5031369;28;20206;-65
2022/08/15 05:04:29;;;;;;;8.23;4.55;;;23.40;99.90;;;;;;5033086;28;20250;-64
2022/08/15 05:06:54;;;;;;;5.43;4.10;;;23.40;99.90;;;;;;5032614;28;20278;-64
2022/08/15 05:09:20;;;;;;;4.40;4.03;;;23.40;99.90;;;;;;5033049;28;20226;-64
2022/08/15 05:11:45;;;;;;;5.90;4.18;;;23.50;99.90;;;;;;5032719;28;20211;-65
2022/08/15 05:14:11;;;;;;;7.18;4.20;;;23.50;99.90;;;;;;5032767;28;20178;-66
2022/08/15 05:16:37;;;;;;;5.43;4.60;;;23.50;99.90;;;;;;5032588;28;20225;-66
2022/08/15 05:19:02;;;;;;;4.93;4.43;;;23.50;99.90;;;;;;5032571;28;20202;-66
2022/08/15 05:21:29;;;;;;;17.48;4.60;;;23.50;99.90;;;;;;5032343;28;20278;-66
2022/08/15 05:23:55;;;;;;;5.35;4.85;;;23.50;99.90;;;;;;5032186;28;20245;-65
2022/08/15 05:26:21;;;;;;;5.05;3.92;;;23.50;99.90;;;;;;5032633;28;20168;-66
2022/08/15 05:28:47;;;;;;;5.38;4.90;;;23.50;99.90;;;;;;5032108;28;20186;-65
2022/08/15 05:31:13;;;;;;;8.18;4.55;;;23.50;99.90;;;;;;5032315;28;20199;-66
2022/08/15 05:33:42;;;;;;;4.38;3.92;;;23.60;99.90;;;;;;5031118;28;20175;-65
2022/08/15 05:36:08;;;;;;;3.88;3.67;;;23.60;99.90;;;;;;5032441;28;20172;-65
2022/08/15 05:38:50;;;;;;;4.57;4.15;;;23.60;99.90;;;;;;5032256;28;20175;-64
2022/08/15 05:41:43;;;;;;;5.03;4.07;;;23.60;99.90;;;;;;5032178;28;20623;-66
2022/08/15 05:45:04;;;;;;;4.63;4.32;;;23.70;99.90;;;;;;5031696;28;20183;-65
2022/08/15 05:47:43;;;;;;;4.55;4.15;;;23.70;99.90;;;;;;5023007;28;20183;-66
2022/08/15 05:50:30;;;;;;;5.57;3.97;;;23.70;99.90;;;;;;5032099;28;20191;-65
2022/08/15 05:53:14;;;;;;;5.75;4.40;;;23.80;99.90;;;;;;5031627;28;20249;-66
2022/08/15 05:55:58;;;;;;;3.70;3.47;;;23.90;99.90;;;;;;5031782;28;20176;-65
2022/08/15 05:58:54;;;;;;;4.65;4.30;;;24.00;99.90;;;;;;5030917;28;20182;-65
2022/08/15 06:01:32;;;;;;;5.53;3.65;;;24.00;99.90;;;;;;5030935;28;20219;-65
2022/08/15 06:04:16;;;;;;;5.43;3.70;;;24.10;99.90;;;;;;5031345;28;20183;-66
2022/08/15 06:06:45;;;;;;;4.40;3.95;;;24.10;99.90;;;;;;5031959;28;20254;-65
2022/08/15 06:09:32;;;;;;;6.78;3.97;;;24.20;99.90;;;;;;5030110;28;20664;-66
2022/08/15 06:12:01;;;;;;;4.00;3.80;;;24.30;99.90;;;;;;5031648;28;20293;-65
2022/08/15 06:14:32;;;;;;;6.53;3.85;;;24.30;99.90;;;;;;5011903;28;20676;-64
2022/08/15 06:17:15;;;;;;;5.20;4.72;;;24.40;99.90;;;;;;5015516;28;20183;-65
2022/08/15 06:19:45;;;;;;;4.70;3.67;;;24.50;99.90;;;;;;5028575;28;20175;-67
2022/08/15 06:22:25;;;;;;;4.57;4.18;;;24.60;99.90;;;;;;5031677;28;20191;-66
2022/08/15 06:25:16;;;;;;;5.32;4.20;;;24.80;99.90;;;;;;5031303;28;20186;-66
2022/08/15 06:27:52;;;;;;;3.92;3.30;;;25.00;99.90;;;;;;5034272;28;20524;-66
2022/08/15 06:30:24;;;;;;;8.50;3.75;;;25.20;99.90;;;;;;5051440;28;20174;-65
2022/08/15 06:32:55;;;;;;;4.60;4.25;;;25.20;99.90;;;;;;5042370;28;20203;-66
2022/08/15 06:35:30;;;;;;;5.70;5.18;;;25.40;99.90;;;;;;5031033;28;20652;-64
2022/08/15 06:38:12;;;;;;;5.43;4.93;;;25.60;99.90;;;;;;5031194;28;20500;-65
2022/08/15 06:41:07;;;;;;;6.57;5.50;;;25.70;99.90;;;;;;5031387;28;22508;-65
2022/08/15 06:43:34;;;;;;;4.20;4.00;;;25.60;99.90;;;;;;4974370;28;20239;-65
2022/08/15 06:46:02;;;;;;;6.18;5.70;;;25.60;99.90;;;;;;5011674;28;20172;-64
2022/08/15 06:48:33;;;;;;;6.13;5.20;;;25.70;99.90;;;;;;5023722;28;20270;-66
2022/08/15 06:51:02;;;;;;;6.72;4.43;;;25.60;99.90;;;;;;5031188;28;20231;-65
2022/08/15 06:53:36;;;;;;;5.80;4.60;;;25.60;99.90;;;;;;5030925;28;20187;-65
2022/08/15 06:56:10;;;;;;;5.03;4.60;;;25.50;99.90;;;;;;5030744;28;20178;-65
2022/08/15 06:59:13;;;;;;;4.45;4.15;;;25.40;99.90;;;;;;5031320;28;20619;-64
2022/08/15 07:01:58;;;;;;;8.82;5.00;;;25.30;99.90;;;;;;5031191;28;20198;-63
2022/08/15 07:04:45;;;;;;;6.60;4.85;;;25.10;99.90;;;;;;5030793;28;20211;-64
2022/08/15 07:07:26;;;;;;;5.32;4.35;;;25.00;99.90;;;;;;5030917;28;20287;-64
2022/08/15 07:10:36;;;;;;;4.22;3.83;;;24.90;99.90;;;;;;5011550;28;20184;-62
2022/08/15 07:13:08;;;;;;;5.53;3.60;;;24.90;99.90;;;;;;4975391;28;20208;-64
2022/08/15 07:15:52;;;;;;;4.40;4.10;;;24.70;99.90;;;;;;5026383;28;20269;-64
2022/08/15 07:18:36;;;;;;;4.53;4.22;;;24.70;99.90;;;;;;5030736;28;20176;-64
2022/08/15 07:21:08;;;;;;;4.40;3.83;;;24.70;99.90;;;;;;5030740;28;20187;-64
2022/08/15 07:23:35;;;;;;;3.88;3.67;;;24.90;99.90;;;;;;5033672;28;20687;-65
2022/08/15 07:26:07;;;;;;;3.83;3.60;;;25.00;99.90;;;;;;5034432;28;20624;-65
2022/08/15 07:28:34;;;;;;;4.35;4.05;;;25.10;99.90;;;;;;5034327;28;20172;-64
2022/08/15 07:31:04;;;;;;;5.18;4.47;;;25.20;99.90;;;;;;5033998;28;20207;-64
2022/08/15 07:33:50;;;;;;;6.57;6.18;;;25.20;99.90;;;;;;5034490;28;20542;-65
2022/08/15 07:36:27;;;;;;;5.55;4.50;;;25.50;99.90;;;;;;5034283;28;20640;-65
2022/08/15 07:38:54;;;;;;;4.72;4.32;;;25.80;99.90;;;;;;5034333;28;20179;-66
2022/08/15 07:41:30;;;;;;;5.43;4.82;;;25.90;99.90;;;;;;5034327;28;20290;-65
2022/08/15 07:44:20;;;;;;;4.82;4.43;;;25.90;99.90;;;;;;5034109;28;20163;-65
2022/08/15 07:47:19;;;;;;;7.40;4.97;;;25.70;99.90;;;;;;5023530;28;20537;-65
2022/08/15 07:49:58;;;;;;;4.82;4.43;;;25.60;99.90;;;;;;5033255;28;20178;-65
2022/08/15 07:52:24;;;;;;;4.95;4.63;;;25.60;99.90;;;;;;5034214;28;20202;-65
2022/08/15 07:55:06;;;;;;;5.05;4.65;;;25.60;99.90;;;;;;5033825;28;20164;-66
2022/08/15 07:57:35;;;;;;;7.50;5.18;;;25.60;99.90;;;;;;5033993;28;20186;-64
2022/08/15 08:00:15;;;;;;;5.45;4.78;;;25.50;99.90;;;;;;5034040;28;20229;-64
2022/08/15 08:03:02;;;;;;;6.97;6.30;;;25.50;99.90;;;;;;5033113;28;20586;-64
2022/08/15 08:05:32;;;;;;;5.68;5.10;;;25.70;99.90;;;;;;5033739;28;20201;-65
2022/08/15 08:08:01;;;;;;;5.35;4.72;;;25.90;99.90;;;;;;5033861;28;20610;-65
2022/08/15 08:10:33;;;;;;;4.65;4.25;;;26.00;99.90;;;;;;5033830;28;20273;-65
2022/08/15 08:13:35;;;;;;;6.53;3.90;;;26.10;99.90;;;;;;5033566;28;20250;-65
2022/08/15 08:16:46;;;;;;;4.85;4.22;;;26.20;99.90;;;;;;5033459;28;20262;-64
2022/08/15 08:19:41;;;;;;;6.72;4.22;;;26.20;99.90;;;;;;5033078;28;20195;-65
2022/08/15 08:22:23;;;;;;;4.70;4.15;;;26.10;99.90;;;;;;5024100;28;20306;-66
2022/08/15 08:25:10;;;;;;;4.82;4.32;;;26.00;99.90;;;;;;5033750;28;20214;-65
2022/08/15 08:27:55;;;;;;;6.65;5.57;;;25.90;99.90;;;;;;5033430;28;20206;-65
2022/08/15 08:30:32;;;;;;;6.18;5.63;;;25.80;99.90;;;;;;5033546;28;20179;-66
2022/08/15 08:32:58;;;;;;;5.18;4.50;;;25.60;99.90;;;;;;5032619;28;20221;-65
2022/08/15 08:36:21;;;;;;;7.75;5.40;;;25.60;99.90;;;;;;5032698;28;20171;-66
2022/08/15 08:38:52;;;;;;;6.85;4.70;;;25.40;99.90;;;;;;4952999;28;20178;-68
2022/08/15 08:41:45;;;;;;;5.57;4.90;;;25.40;99.90;;;;;;4953003;28;20301;-64
2022/08/15 08:44:43;;;;;;;6.20;5.60;;;25.30;99.90;;;;;;4996833;28;20188;-65
2022/08/15 08:47:11;;;;;;;5.18;4.78;;;25.20;99.90;;;;;;5020777;28;20187;-66
2022/08/15 08:49:48;;;;;;;7.95;5.05;;;25.30;99.90;;;;;;5033321;28;20175;-66
2022/08/15 08:52:45;;;;;;;5.93;5.45;;;25.40;99.90;;;;;;5032647;28;20206;-65
2022/08/15 08:55:23;;;;;;;5.75;5.30;;;25.50;99.90;;;;;;5032803;28;20179;-65
2022/08/15 08:58:07;;;;;;;5.45;4.95;;;25.40;99.90;;;;;;5032833;28;20552;-65
2022/08/15 09:00:47;;;;;;;5.38;4.97;;;25.50;99.90;;;;;;5033080;28;20172;-65
2022/08/15 09:03:20;;;;;;;7.03;5.63;;;25.50;99.90;;;;;;5032214;28;20250;-65
2022/08/15 09:05:53;;;;;;;5.47;5.03;;;25.40;99.90;;;;;;5031724;28;20186;-64
2022/08/15 09:08:25;;;;;;;6.03;5.32;;;25.30;99.90;;;;;;5030097;28;20541;-65
2022/08/15 09:10:55;;;;;;;9.10;5.35;;;25.10;99.90;;;;;;5032736;28;20195;-65
2022/08/15 09:13:34;;;;;;;6.03;5.45;;;25.00;99.90;;;;;;5031689;28;20171;-65
2022/08/15 09:16:18;;;;;;;6.40;5.25;;;25.00;99.90;;;;;;5032622;28;20191;-66
2022/08/15 09:19:06;;;;;;;6.22;4.60;;;24.90;99.90;;;;;;5032300;28;20175;-65
2022/08/15 09:21:33;;;;;;;6.22;4.82;;;25.00;99.90;;;;;;5032306;28;20203;-65
2022/08/15 09:23:59;;;;;;;4.82;4.43;;;24.90;99.90;;;;;;5032140;28;20175;-65
2022/08/15 09:26:28;;;;;;;10.20;4.90;;;25.00;99.90;;;;;;5032354;28;20183;-65
2022/08/15 09:29:26;;;;;;;5.97;5.13;;;25.10;99.90;;;;;;5032775;28;20183;-65
2022/08/15 09:32:24;;;;;;;7.80;5.22;;;25.20;99.90;;;;;;5020360;28;20211;-65
2022/08/15 09:35:25;;;;;;;5.50;4.75;;;25.20;99.90;;;;;;5014246;28;20271;-65
2022/08/15 09:38:06;;;;;;;6.20;5.32;;;25.20;99.90;;;;;;5032448;28;20190;-65
2022/08/15 09:41:00;;;;;;;6.63;5.72;;;25.30;99.90;;;;;;5031890;28;20179;-65
2022/08/15 09:43:41;;;;;;;6.05;5.38;;;25.50;99.90;;;;;;5028054;28;20196;-65
2022/08/15 09:46:10;;;;;;;5.63;5.22;;;25.50;99.90;;;;;;5031336;28;20191;-64
2022/08/15 09:48:42;;;;;;;5.80;5.18;;;25.60;99.90;;;;;;5032468;28;20179;-63
2022/08/15 09:51:19;;;;;;;7.18;5.78;;;25.70;99.90;;;;;;5031384;28;20602;-64
2022/08/15 09:54:04;;;;;;;6.25;5.75;;;25.90;99.90;;;;;;5031623;28;20207;-65
2022/08/15 09:56:37;;;;;;;5.50;5.00;;;26.10;99.90;;;;;;5030517;28;20179;-65
2022/08/15 09:59:18;;;;;;;5.45;5.05;;;26.30;99.90;;;;;;5031743;28;20174;-64
2022/08/15 10:01:58;;;;;;;5.60;5.00;;;26.60;99.90;;;;;;5031658;28;20214;-64
2022/08/15 10:05:02;;;;;;;5.05;4.55;;;26.80;99.90;;;;;;5031607;28;20171;-65
2022/08/15 10:07:43;;;;;;;6.20;5.53;;;26.70;99.90;;;;;;5012177;28;20194;-64
2022/08/15 10:10:14;;;;;;;4.95;4.57;;;26.70;99.90;;;;;;5016570;28;20171;-65
2022/08/15 10:13:21;;;;;;;7.22;4.50;;;26.60;99.90;;;;;;5031706;28;20214;-63
2022/08/15 10:15:48;;;;;;;5.72;5.00;;;26.60;99.90;;;;;;5031375;28;20171;-64
2022/08/15 10:18:22;;;;;;;5.85;5.07;;;26.70;99.90;;;;;;5031672;28;20628;-64
2022/08/15 10:21:17;;;;;;;5.80;5.30;;;26.60;99.90;;;;;;5031355;28;20277;-64
2022/08/15 10:23:49;;;;;;;6.70;5.57;;;26.50;99.90;;;;;;5047676;28;20171;-64
2022/08/15 10:26:20;;;;;;;5.13;4.72;;;26.50;99.90;;;;;;5051589;28;20167;-64
2022/08/15 10:29:07;;;;;;;5.97;5.47;;;26.50;99.90;;;;;;5051732;28;20531;-63
2022/08/15 10:31:49;;;;;;;5.38;4.60;;;26.50;99.90;;;;;;5037891;28;20211;-65
2022/08/15 10:34:35;;;;;;;10.15;5.07;;;26.70;99.90;;;;;;5030986;28;20258;-67
2022/08/15 10:37:22;;;;;;;6.25;5.30;;;26.80;99.90;;;;;;5031181;28;20179;-64
2022/08/15 10:39:58;;;;;;;5.60;4.90;;;26.90;99.90;;;;;;5030272;28;20266;-64
2022/08/15 10:42:54;;;;;;;5.60;5.07;;;26.90;99.90;;;;;;5032019;28;20221;-64
2022/08/15 10:45:33;;;;;;;5.47;4.97;;;27.00;99.90;;;;;;5020018;28;20206;-64
2022/08/15 10:48:36;;;;;;;5.95;5.07;;;27.10;99.90;;;;;;5030968;28;20199;-63
2022/08/15 10:51:16;;;;;;;9.25;5.10;;;27.00;99.90;;;;;;5030932;28;20564;-65
2022/08/15 10:53:49;;;;;;;6.32;5.15;;;26.90;99.90;;;;;;5030712;28;20175;-65
2022/08/15 10:56:22;;;;;;;6.60;6.13;;;26.80;99.90;;;;;;5032306;28;20190;-64
2022/08/15 10:58:49;;;;;;;7.00;5.25;;;26.50;99.90;;;;;;5035258;28;20190;-65
2022/08/15 11:01:26;;;;;;;5.68;4.95;;;26.20;99.90;;;;;;5035035;28;20202;-65
2022/08/15 11:04:05;;;;;;;4.95;4.55;;;26.10;99.90;;;;;;5034482;28;20214;-65
2022/08/15 11:06:40;;;;;;;6.30;4.70;;;25.80;99.90;;;;;;5035279;28;20175;-64
2022/08/15 11:09:17;;;;;;;5.22;4.47;;;25.70;99.90;;;;;;5035357;28;20175;-65
2022/08/15 11:12:03;;;;;;;6.35;5.75;;;25.50;99.90;;;;;;5035124;28;20570;-64
2022/08/15 11:14:38;;;;;;;7.00;6.40;;;25.50;99.90;;;;;;5034600;28;20542;-66
2022/08/15 11:17:12;;;;;;;5.78;5.22;;;25.40;99.90;;;;;;5034882;28;20527;-65
2022/08/15 11:19:44;;;;;;;5.70;5.38;;;25.30;99.90;;;;;;5034642;28;20241;-65
2022/08/15 11:22:20;;;;;;;7.57;6.78;;;25.10;99.90;;;;;;5034619;28;20221;-65
2022/08/15 11:25:00;;;;;;;6.63;5.18;;;24.80;99.90;;;;;;5034613;28;20648;-64
2022/08/15 11:27:28;;;;;;;6.72;6.22;;;24.50;99.90;;;;;;5034700;28;20233;-66
2022/08/15 11:29:57;;;;;;;6.03;5.28;;;24.40;99.90;;;;;;5034736;28;20194;-66
2022/08/15 11:32:34;;;;;;;8.50;7.57;;;24.30;99.90;;;;;;5034680;28;20211;-65
2022/08/15 11:35:04;;;;;;;6.32;5.45;;;24.20;99.90;;;;;;5034365;28;20663;-64
2022/08/15 11:37:38;;;;;;;5.43;5.00;;;24.10;99.90;;;;;;5034534;28;20183;-65
2022/08/15 11:40:36;;;;;;;5.78;5.28;;;24.20;99.90;;;;;;5034591;28;20177;-64
2022/08/15 11:43:03;;;;;;;7.00;5.82;;;24.20;99.90;;;;;;5007421;28;20597;-65
2022/08/15 11:45:35;;;;;;;6.40;4.80;;;24.30;99.90;;;;;;5018604;28;20590;-65
2022/08/15 11:48:09;;;;;;;5.03;4.63;;;24.40;99.90;;;;;;5034360;28;20229;-66
2022/08/15 11:50:40;;;;;;;5.55;4.93;;;24.60;99.90;;;;;;5033806;28;20202;-65
2022/08/15 11:53:08;;;;;;;5.22;4.82;;;24.80;99.90;;;;;;5034027;28;20208;-66
2022/08/15 11:55:39;;;;;;;9.27;4.80;;;25.10;99.90;;;;;;5033726;28;20221;-64
2022/08/15 11:58:13;;;;;;;5.22;4.70;;;25.30;99.90;;;;;;5034333;28;20693;-65
2022/08/15 12:00:50;;;;;;;4.55;4.22;;;25.60;99.90;;;;;;5033886;28;20202;-64
2022/08/15 12:03:20;;;;;;;4.80;4.40;;;25.80;99.90;;;;;;5033921;28;20186;-65
2022/08/15 12:05:47;;;;;;;4.40;4.00;;;26.00;99.90;;;;;;5033677;28;20186;-65
2022/08/15 12:08:19;;;;;;;4.95;4.30;;;26.00;99.90;;;;;;5033132;28;20214;-65
2022/08/15 12:10:46;;;;;;;4.70;4.30;;;26.10;99.90;;;;;;5033799;28;20199;-66
2022/08/15 12:13:16;;;;;;;5.40;4.90;;;26.00;99.90;;;;;;5033450;28;20218;-65
2022/08/15 12:15:44;;;;;;;4.60;4.20;;;25.90;99.90;;;;;;5033286;28;20641;-65
2022/08/15 12:18:12;;;;;;;4.88;4.32;;;26.00;99.90;;;;;;5033876;28;20237;-64
2022/08/15 12:21:02;;;;;;;5.88;4.05;;;26.10;99.90;;;;;;5033534;28;20547;-64
2022/08/15 12:23:54;;;;;;;4.72;4.35;;;26.10;99.90;;;;;;5033513;28;20180;-65
2022/08/15 12:26:24;;;;;;;4.38;4.07;;;26.00;99.90;;;;;;5033585;28;20175;-65
2022/08/15 12:28:49;;;;;;;5.40;4.90;;;25.90;99.90;;;;;;5033737;28;20175;-65
2022/08/15 12:31:34;;;;;;;4.65;4.30;;;25.90;99.90;;;;;;5033002;28;20211;-65
2022/08/15 12:34:19;;;;;;;4.30;4.00;;;26.00;99.90;;;;;;5033180;28;20167;-65
2022/08/15 12:36:45;;;;;;;4.82;4.50;;;26.00;99.90;;;;;;5033232;28;20237;-63
2022/08/15 12:39:14;;;;;;;4.40;4.05;;;25.80;99.90;;;;;;5033632;28;20167;-65
2022/08/15 12:41:43;;;;;;;5.07;4.63;;;25.60;99.90;;;;;;5032603;28;20215;-63
2022/08/15 12:44:17;;;;;;;4.68;4.38;;;25.50;99.90;;;;;;5032455;28;20637;-64
2022/08/15 12:46:43;;;;;;;5.00;4.60;;;25.50;99.90;;;;;;5033169;28;20257;-65
2022/08/15 12:49:08;;;;;;;4.55;4.25;;;25.50;99.90;;;;;;5032852;28;20262;-64
2022/08/15 12:51:34;;;;;;;5.90;4.68;;;25.40;99.90;;;;;;5033015;28;20211;-66
2022/08/15 12:54:00;;;;;;;5.88;5.50;;;25.50;99.90;;;;;;5032784;28;20534;-66
2022/08/15 12:56:25;;;;;;;5.03;4.60;;;25.40;99.90;;;;;;5033577;28;20254;-66
2022/08/15 12:58:51;;;;;;;4.68;4.28;;;25.40;99.90;;;;;;5032327;28;20167;-66
2022/08/15 13:01:17;;;;;;;4.03;3.78;;;25.50;99.90;;;;;;5032927;28;20238;-67
2022/08/15 13:03:44;;;;;;;5.93;4.13;;;25.70;99.90;;;;;;5032571;28;20203;-66
2022/08/15 13:06:23;;;;;;;4.72;4.13;;;26.10;99.90;;;;;;5032706;28;20221;-66
2022/08/15 13:08:49;;;;;;;4.75;4.45;;;26.40;99.90;;;;;;5032900;28;20175;-66
2022/08/15 13:11:14;;;;;;;5.38;4.88;;;26.80;99.90;;;;;;5032527;28;20615;-66
2022/08/15 13:13:40;;;;;;;5.18;4.78;;;27.20;99.90;;;;;;5032443;28;20198;-67
2022/08/15 13:16:08;;;;;;;4.97;4.60;;;27.50;99.90;;;;;;5032588;28;20568;-65
2022/08/15 13:18:36;;;;;;;5.50;5.07;;;27.60;99.90;;;;;;5032860;28;20164;-64
2022/08/15 13:23:52;;;;;;;4.93;4.63;;;28.00;99.90;;;;;;5032584;28;20182;-66
2022/08/15 13:26:20;;;;;;;5.00;4.60;;;28.50;99.90;;;;;;5032749;28;20175;-66